Time,TemperatureF,DewpointF,PressureIn,WindDirection,WindDirectionDegrees,WindSpeedMPH,WindSpeedGustMPH,Humidity,HourlyPrecipIn,Conditions,Clouds,dailyrainin,SoftwareType,DateUTC
2013-07-23 00:22:00,68.0,67.0,29.81,SSE,160,0.0,1.0,97,0.00,,,0.53,,2013-07-23 04:22:00,
2013-07-23 00:43:00,67.0,66.0,29.82,South,169,0.0,1.0,97,0.00,,,0.53,,2013-07-23 04:43:00,
2013-07-23 01:33:00,67.0,66.0,29.82,SSE,154,0.0,0.0,97,0.00,,,0.53,,2013-07-23 05:33:00,
2013-07-23 01:44:00,67.0,66.0,29.82,SSE,154,0.0,0.0,98,0.00,,,0.53,,2013-07-23 05:44:00,
2013-07-23 01:52:00,67.0,66.0,29.82,SSE,154,0.0,0.0,98,0.00,,,0.53,,2013-07-23 05:52:00,
2013-07-23 02:33:00,67.0,66.0,29.81,SSE,154,0.0,0.0,98,0.00,,,0.53,,2013-07-23 06:33:00,
2013-07-23 02:42:00,67.0,66.0,29.81,SSE,154,0.0,0.0,98,0.00,,,0.53,,2013-07-23 06:42:00,
2013-07-23 02:52:00,67.0,66.0,29.81,SSE,154,0.0,0.0,98,0.00,,,0.53,,2013-07-23 06:52:00,
2013-07-23 03:01:00,67.0,66.0,29.81,SSE,154,0.0,0.0,98,0.00,,,0.53,,2013-07-23 07:01:00,
2013-07-23 03:12:00,67.0,66.0,29.80,SSE,154,0.0,0.0,98,0.00,,,0.53,,2013-07-23 07:12:00,
2013-07-23 03:42:00,67.0,66.0,29.79,SSE,154,0.0,0.0,98,0.00,,,0.53,,2013-07-23 07:42:00,
2013-07-23 04:33:00,67.0,66.0,29.77,SSE,164,0.0,2.0,98,0.00,,,0.52,,2013-07-23 08:33:00,
2013-07-23 04:52:00,68.0,67.0,29.78,West,264,1.0,3.0,98,0.00,,,0.52,,2013-07-23 08:52:00,
2013-07-23 05:01:00,68.0,67.0,29.78,WSW,242,0.0,2.0,97,0.00,,,0.52,,2013-07-23 09:01:00,
2013-07-23 07:32:00,69.0,68.0,29.76,WSW,247,2.0,5.0,96,0.00,,,0.16,,2013-07-23 11:32:00,
2013-07-23 07:43:00,70.0,68.0,29.76,SW,235,3.0,9.0,94,0.00,,,0.16,,2013-07-23 11:43:00,
2013-07-23 08:02:00,71.0,69.0,29.76,West,279,2.0,6.0,93,0.00,,,0.16,,2013-07-23 12:02:00,
2013-07-23 08:43:00,73.0,70.0,29.77,WSW,252,4.0,8.0,91,0.00,,,0.05,,2013-07-23 12:43:00,
2013-07-23 09:32:00,75.0,70.0,29.77,SW,236,5.0,9.0,84,0.00,,,0.02,,2013-07-23 13:32:00,
2013-07-23 10:02:00,77.0,71.0,29.78,West,277,5.0,10.0,81,0.00,,,0.02,,2013-07-23 14:02:00,
2013-07-23 10:44:00,78.0,69.0,29.77,WNW,284,8.0,12.0,73,0.00,,,0.00,,2013-07-23 14:44:00,
2013-07-23 10:53:00,78.0,69.0,29.78,WSW,249,7.0,12.0,73,0.00,,,0.00,,2013-07-23 14:53:00,
2013-07-23 11:32:00,80.0,68.0,29.77,West,281,6.0,11.0,68,0.00,,,0.00,,2013-07-23 15:32:00,
2013-07-23 12:01:00,81.0,70.0,29.77,West,278,9.0,14.0,70,0.00,,,0.00,,2013-07-23 16:01:00,
2013-07-23 12:33:00,81.0,70.0,29.78,West,281,8.0,13.0,69,0.00,,,0.00,,2013-07-23 16:33:00,
2013-07-23 12:43:00,81.0,71.0,29.78,West,259,7.0,13.0,71,0.00,,,0.00,,2013-07-23 16:43:00,
2013-07-23 13:02:00,81.0,70.0,29.78,NNW,340,7.0,16.0,69,0.00,,,0.00,,2013-07-23 17:02:00,
2013-07-23 13:42:00,82.0,69.0,29.77,WSW,257,10.0,16.0,65,0.00,,,0.00,,2013-07-23 17:42:00,
2013-07-23 14:34:00,82.0,69.0,29.77,West,271,10.0,16.0,65,0.00,,,0.00,,2013-07-23 18:34:00,
2013-07-23 14:48:00,81.0,68.0,29.76,WNW,289,7.0,15.0,65,0.00,,,0.00,,2013-07-23 18:48:00,
2013-07-23 14:55:00,81.0,68.0,29.76,WNW,288,6.0,14.0,65,0.00,,,0.00,,2013-07-23 18:55:00,
2013-07-23 16:06:00,82.0,70.0,29.75,West,276,7.0,17.0,67,0.00,,,0.00,,2013-07-23 20:06:00,
2013-07-23 16:45:00,82.0,68.0,29.74,North,4,4.0,11.0,63,0.00,,,0.00,,2013-07-23 20:45:00,
2013-07-23 16:56:00,82.0,69.0,29.75,WNW,296,3.0,13.0,65,0.00,,,0.00,,2013-07-23 20:56:00,
2013-07-23 17:54:00,80.0,69.0,29.76,NNW,347,7.0,17.0,69,0.00,,,0.00,,2013-07-23 21:54:00,
2013-07-23 18:45:00,75.0,65.0,29.78,NNW,331,12.0,23.0,71,0.00,,,0.00,,2013-07-23 22:45:00,
2013-07-23 18:56:00,74.0,64.0,29.78,WNW,302,10.0,23.0,72,0.00,,,0.00,,2013-07-23 22:56:00,
2013-07-23 19:35:00,73.0,62.0,29.79,NNW,335,9.0,17.0,69,0.00,,,0.00,,2013-07-23 23:35:00,
2013-07-23 19:44:00,73.0,62.0,29.80,NW,321,6.0,18.0,68,0.00,,,0.00,,2013-07-23 23:44:00,
2013-07-23 19:56:00,72.0,60.0,29.80,NNW,342,10.0,18.0,67,0.00,,,0.00,,2013-07-23 23:56:00,
2013-07-23 20:14:00,71.0,59.0,29.80,NNW,335,6.0,16.0,67,0.00,,,0.00,,2013-07-24 00:14:00,
2013-07-23 20:34:00,70.0,60.0,29.81,NW,307,3.0,11.0,71,0.00,,,0.00,,2013-07-24 00:34:00,
2013-07-23 20:48:00,69.0,59.0,29.80,NW,326,2.0,10.0,71,0.00,,,0.00,,2013-07-24 00:48:00,
2013-07-23 20:54:00,69.0,59.0,29.81,WNW,293,4.0,8.0,71,0.00,,,0.00,,2013-07-24 00:54:00,
2013-07-23 21:04:00,69.0,58.0,29.81,NW,309,5.0,12.0,69,0.00,,,0.00,,2013-07-24 01:04:00,
2013-07-23 21:14:00,69.0,58.0,29.81,NNW,329,5.0,12.0,68,0.00,,,0.00,,2013-07-24 01:14:00,
2013-07-23 21:33:00,68.0,57.0,29.81,NW,323,4.0,11.0,69,0.00,,,0.00,,2013-07-24 01:33:00,
2013-07-23 22:47:00,64.0,56.0,29.85,NW,311,3.0,9.0,75,0.00,,,0.00,,2013-07-24 02:47:00,